sensor_id;sensor_type;location;lat;lon;timestamp;pressure;altitude;pressure_sealevel;temperature;humidity
7264;BME280;3673;52.480;13.348;2024-02-26T00:01:51;100021.59;;;10.91;48.89
7264;BME280;3673;52.480;13.348;2024-02-26T00:04:18;100019.44;;;10.57;49.94
7264;BME280;3673;52.480;13.348;2024-02-26T00:06:44;100010.03;;;11.07;49.01
7264;BME280;3673;52.480;13.348;2024-02-26T00:09:11;100004.69;;;11.13;48.98
7264;BME280;3673;52.480;13.348;2024-02-26T00:11:38;100010.50;;;11.33;48.29
7264;BME280;3673;52.480;13.348;2024-02-26T00:14:05;100008.44;;;10.95;49.12
7264;BME280;3673;52.480;13.348;2024-02-26T00:16:33;100010.91;;;11.07;48.58
7264;BME280;3673;52.480;13.348;2024-02-26T00:19:00;100005.97;;;10.86;48.82
7264;BME280;3673;52.480;13.348;2024-02-26T00:21:27;100011.66;;;11.14;49.43
7264;BME280;3673;52.480;13.348;2024-02-26T00:23:54;99998.69;;;10.44;50.34
7264;BME280;3673;52.480;13.348;2024-02-26T00:26:21;100009.97;;;10.44;50.72
7264;BME280;3673;52.480;13.348;2024-02-26T00:28:47;100005.06;;;10.18;51.76
7264;BME280;3673;52.480;13.348;2024-02-26T00:31:14;100007.06;;;9.94;52.25
7264;BME280;3673;52.480;13.348;2024-02-26T00:33:42;100006.91;;;10.04;52.69
7264;BME280;3673;52.480;13.348;2024-02-26T00:36:09;99999.09;;;10.04;52.57
7264;BME280;3673;52.480;13.348;2024-02-26T00:38:36;99988.78;;;9.92;53.42
7264;BME280;3673;52.480;13.348;2024-02-26T00:41:04;99998.47;;;9.79;53.03
7264;BME280;3673;52.480;13.348;2024-02-26T00:43:31;99991.28;;;10.01;53.02
7264;BME280;3673;52.480;13.348;2024-02-26T00:45:58;99990.25;;;10.20;52.90
7264;BME280;3673;52.480;13.348;2024-02-26T00:48:25;99989.25;;;10.29;53.56
7264;BME280;3673;52.480;13.348;2024-02-26T00:50:53;99973.50;;;10.35;53.08
7264;BME280;3673;52.480;13.348;2024-02-26T00:53:20;99984.44;;;10.66;53.34
7264;BME280;3673;52.480;13.348;2024-02-26T00:55:46;99977.50;;;10.62;53.08
7264;BME280;3673;52.480;13.348;2024-02-26T00:58:13;99982.03;;;10.51;53.26
7264;BME280;3673;52.480;13.348;2024-02-26T01:00:40;99983.78;;;10.49;52.53
7264;BME280;3673;52.480;13.348;2024-02-26T01:03:07;99980.44;;;10.38;52.92
7264;BME280;3673;52.480;13.348;2024-02-26T01:05:35;99976.00;;;10.44;53.33
7264;BME280;3673;52.480;13.348;2024-02-26T01:08:05;99984.31;;;10.75;52.97
7264;BME280;3673;52.480;13.348;2024-02-26T01:10:32;99980.38;;;10.42;53.66
7264;BME280;3673;52.480;13.348;2024-02-26T01:12:59;99986.91;;;10.02;54.61
7264;BME280;3673;52.480;13.348;2024-02-26T01:15:26;99993.09;;;9.96;54.60
7264;BME280;3673;52.480;13.348;2024-02-26T01:17:53;99989.06;;;9.62;55.74
7264;BME280;3673;52.480;13.348;2024-02-26T01:20:20;99988.09;;;9.72;55.67
7264;BME280;3673;52.480;13.348;2024-02-26T01:22:47;99992.44;;;9.73;55.68
7264;BME280;3673;52.480;13.348;2024-02-26T01:25:15;99983.78;;;9.68;55.47
7264;BME280;3673;52.480;13.348;2024-02-26T01:27:43;99984.88;;;9.47;56.07
7264;BME280;3673;52.480;13.348;2024-02-26T01:30:11;99974.00;;;9.88;54.95
7264;BME280;3673;52.480;13.348;2024-02-26T01:32:38;99977.53;;;9.84;55.32
7264;BME280;3673;52.480;13.348;2024-02-26T01:35:06;99977.72;;;9.64;56.43
7264;BME280;3673;52.480;13.348;2024-02-26T01:37:35;99971.09;;;10.18;55.00
7264;BME280;3673;52.480;13.348;2024-02-26T01:40:02;99967.50;;;10.27;55.00
7264;BME280;3673;52.480;13.348;2024-02-26T01:42:31;99956.84;;;10.42;54.46
7264;BME280;3673;52.480;13.348;2024-02-26T01:44:58;99966.34;;;10.49;54.69
7264;BME280;3673;52.480;13.348;2024-02-26T01:47:25;99966.31;;;10.54;54.82
7264;BME280;3673;52.480;13.348;2024-02-26T01:49:53;99967.34;;;10.39;55.35
7264;BME280;3673;52.480;13.348;2024-02-26T01:52:21;99968.25;;;10.37;55.25
7264;BME280;3673;52.480;13.348;2024-02-26T01:54:48;99975.94;;;10.50;54.88
7264;BME280;3673;52.480;13.348;2024-02-26T01:57:16;99972.59;;;10.38;54.48
7264;BME280;3673;52.480;13.348;2024-02-26T01:59:44;99976.91;;;10.43;54.16
7264;BME280;3673;52.480;13.348;2024-02-26T02:02:12;99972.75;;;10.25;54.30
7264;BME280;3673;52.480;13.348;2024-02-26T02:04:39;99977.25;;;10.10;54.13
7264;BME280;3673;52.480;13.348;2024-02-26T02:07:06;99983.47;;;10.00;54.78
7264;BME280;3673;52.480;13.348;2024-02-26T02:09:33;99982.00;;;9.71;55.31
7264;BME280;3673;52.480;13.348;2024-02-26T02:12:00;99967.09;;;9.82;55.60
7264;BME280;3673;52.480;13.348;2024-02-26T02:14:27;99973.31;;;9.72;55.43
7264;BME280;3673;52.480;13.348;2024-02-26T02:16:55;99967.69;;;10.10;55.12
7264;BME280;3673;52.480;13.348;2024-02-26T02:19:22;99962.38;;;10.18;54.76
7264;BME280;3673;52.480;13.348;2024-02-26T02:21:50;99966.88;;;10.02;54.90
7264;BME280;3673;52.480;13.348;2024-02-26T02:24:17;99981.00;;;9.86;55.13
7264;BME280;3673;52.480;13.348;2024-02-26T02:26:43;99976.72;;;9.80;55.30
7264;BME280;3673;52.480;13.348;2024-02-26T02:29:11;99973.47;;;9.57;56.07
7264;BME280;3673;52.480;13.348;2024-02-26T02:31:40;99980.72;;;10.13;55.03
7264;BME280;3673;52.480;13.348;2024-02-26T02:34:08;99979.09;;;10.03;55.16
7264;BME280;3673;52.480;13.348;2024-02-26T02:36:35;99974.09;;;9.77;55.75
7264;BME280;3673;52.480;13.348;2024-02-26T02:39:17;99973.78;;;10.09;55.53
7264;BME280;3673;52.480;13.348;2024-02-26T02:41:44;99974.56;;;10.17;54.85
7264;BME280;3673;52.480;13.348;2024-02-26T02:44:10;99983.41;;;10.06;55.25
7264;BME280;3673;52.480;13.348;2024-02-26T02:46:37;99968.47;;;10.18;55.21
7264;BME280;3673;52.480;13.348;2024-02-26T02:49:08;99979.09;;;10.02;55.69
7264;BME280;3673;52.480;13.348;2024-02-26T02:51:35;99985.06;;;10.11;55.36
7264;BME280;3673;52.480;13.348;2024-02-26T02:54:01;99986.88;;;10.06;55.13
7264;BME280;3673;52.480;13.348;2024-02-26T02:56:29;99984.22;;;10.08;55.71
7264;BME280;3673;52.480;13.348;2024-02-26T02:58:56;99993.78;;;10.15;55.11
7264;BME280;3673;52.480;13.348;2024-02-26T03:01:23;99988.69;;;10.00;55.50
7264;BME280;3673;52.480;13.348;2024-02-26T03:03:50;99986.88;;;10.05;55.40
7264;BME280;3673;52.480;13.348;2024-02-26T03:06:16;99987.16;;;9.80;55.85
7264;BME280;3673;52.480;13.348;2024-02-26T03:08:43;99996.97;;;9.57;56.39
7264;BME280;3673;52.480;13.348;2024-02-26T03:11:13;99992.44;;;9.71;56.21
7264;BME280;3673;52.480;13.348;2024-02-26T03:13:42;99993.19;;;9.84;56.20
7264;BME280;3673;52.480;13.348;2024-02-26T03:16:09;99989.00;;;9.68;56.01
7264;BME280;3673;52.480;13.348;2024-02-26T03:18:35;99986.53;;;9.57;56.41
7264;BME280;3673;52.480;13.348;2024-02-26T03:21:04;99989.06;;;9.62;56.19
7264;BME280;3673;52.480;13.348;2024-02-26T03:23:31;99988.69;;;9.98;55.78
7264;BME280;3673;52.480;13.348;2024-02-26T03:26:02;99983.16;;;9.42;56.64
7264;BME280;3673;52.480;13.348;2024-02-26T03:28:29;99989.78;;;9.77;56.45
7264;BME280;3673;52.480;13.348;2024-02-26T03:30:57;99986.38;;;9.74;56.48
7264;BME280;3673;52.480;13.348;2024-02-26T03:33:24;99977.53;;;9.84;56.03
7264;BME280;3673;52.480;13.348;2024-02-26T03:35:51;99976.75;;;9.76;55.86
7264;BME280;3673;52.480;13.348;2024-02-26T03:38:17;99974.94;;;9.81;55.69
7264;BME280;3673;52.480;13.348;2024-02-26T03:40:44;99982.91;;;9.67;56.05
7264;BME280;3673;52.480;13.348;2024-02-26T03:43:11;99975.97;;;9.66;56.26
7264;BME280;3673;52.480;13.348;2024-02-26T03:45:38;99998.56;;;9.67;56.32
7264;BME280;3673;52.480;13.348;2024-02-26T03:48:07;100003.84;;;9.64;56.47
7264;BME280;3673;52.480;13.348;2024-02-26T03:50:34;99997.72;;;9.70;56.14
7264;BME280;3673;52.480;13.348;2024-02-26T03:53:00;99997.03;;;9.50;56.68
7264;BME280;3673;52.480;13.348;2024-02-26T03:55:26;99997.78;;;9.64;56.36
7264;BME280;3673;52.480;13.348;2024-02-26T03:57:53;99996.84;;;9.68;56.41
7264;BME280;3673;52.480;13.348;2024-02-26T04:00:20;99998.59;;;9.70;56.32
7264;BME280;3673;52.480;13.348;2024-02-26T04:02:47;100006.31;;;9.79;55.60
7264;BME280;3673;52.480;13.348;2024-02-26T04:05:16;100003.91;;;9.60;56.24
7264;BME280;3673;52.480;13.348;2024-02-26T04:07:43;100009.19;;;9.54;56.52
7264;BME280;3673;52.480;13.348;2024-02-26T04:10:10;100011.72;;;9.58;56.28
7264;BME280;3673;52.480;13.348;2024-02-26T04:12:38;100012.59;;;9.59;56.49
7264;BME280;3673;52.480;13.348;2024-02-26T04:15:07;100006.41;;;9.67;55.78
7264;BME280;3673;52.480;13.348;2024-02-26T04:17:34;100007.28;;;9.68;56.30
7264;BME280;3673;52.480;13.348;2024-02-26T04:20:02;100004.75;;;9.63;56.66
7264;BME280;3673;52.480;13.348;2024-02-26T04:22:30;100010.84;;;9.64;56.40
7264;BME280;3673;52.480;13.348;2024-02-26T04:24:56;100015.09;;;9.72;56.11
7264;BME280;3673;52.480;13.348;2024-02-26T04:27:23;100017.75;;;9.66;56.25
7264;BME280;3673;52.480;13.348;2024-02-26T04:29:50;100018.72;;;9.55;56.57
7264;BME280;3673;52.480;13.348;2024-02-26T04:32:17;100024.97;;;9.36;56.57
7264;BME280;3673;52.480;13.348;2024-02-26T04:34:44;100028.25;;;9.63;56.37
7264;BME280;3673;52.480;13.348;2024-02-26T04:37:10;100025.56;;;9.68;56.23
7264;BME280;3673;52.480;13.348;2024-02-26T04:39:38;100033.22;;;9.89;55.82
7264;BME280;3673;52.480;13.348;2024-02-26T04:42:05;100029.84;;;9.79;56.26
7264;BME280;3673;52.480;13.348;2024-02-26T04:44:33;100032.47;;;9.76;56.10
7264;BME280;3673;52.480;13.348;2024-02-26T04:46:59;100036.75;;;9.83;55.74
7264;BME280;3673;52.480;13.348;2024-02-26T04:49:27;100039.34;;;9.87;55.57
7264;BME280;3673;52.480;13.348;2024-02-26T04:51:54;100038.44;;;9.91;55.97
7264;BME280;3673;52.480;13.348;2024-02-26T04:54:21;100040.19;;;9.90;56.12
7264;BME280;3673;52.480;13.348;2024-02-26T04:56:49;100045.50;;;9.79;56.13
7264;BME280;3673;52.480;13.348;2024-02-26T04:59:16;100034.13;;;9.85;56.29
7264;BME280;3673;52.480;13.348;2024-02-26T05:01:42;100045.44;;;9.87;55.68
7264;BME280;3673;52.480;13.348;2024-02-26T05:04:09;100040.22;;;9.86;55.64
7264;BME280;3673;52.480;13.348;2024-02-26T05:06:36;100039.38;;;9.83;55.77
7264;BME280;3673;52.480;13.348;2024-02-26T05:09:04;100049.91;;;9.73;56.21
7264;BME280;3673;52.480;13.348;2024-02-26T05:11:30;100056.91;;;9.68;56.74
7264;BME280;3673;52.480;13.348;2024-02-26T05:13:59;100054.25;;;9.71;56.56
7264;BME280;3673;52.480;13.348;2024-02-26T05:16:26;100059.47;;;9.77;56.53
7264;BME280;3673;52.480;13.348;2024-02-26T05:18:55;100056.75;;;9.86;55.75
7264;BME280;3673;52.480;13.348;2024-02-26T05:21:22;100064.63;;;9.81;56.40
7264;BME280;3673;52.480;13.348;2024-02-26T05:23:49;100064.69;;;9.75;56.48
7264;BME280;3673;52.480;13.348;2024-02-26T05:26:19;100072.41;;;9.91;56.00
7264;BME280;3673;52.480;13.348;2024-02-26T05:28:47;100068.00;;;9.94;56.07
7264;BME280;3673;52.480;13.348;2024-02-26T05:31:16;100076.91;;;9.73;56.41
7264;BME280;3673;52.480;13.348;2024-02-26T05:33:43;100068.22;;;9.68;56.48
7264;BME280;3673;52.480;13.348;2024-02-26T05:36:10;100068.22;;;9.70;56.75
7264;BME280;3673;52.480;13.348;2024-02-26T05:38:37;100065.44;;;9.88;56.15
7264;BME280;3673;52.480;13.348;2024-02-26T05:41:03;100080.47;;;9.63;57.05
7264;BME280;3673;52.480;13.348;2024-02-26T05:43:31;100069.72;;;9.95;56.26
7264;BME280;3673;52.480;13.348;2024-02-26T05:45:57;100077.72;;;9.80;56.50
7264;BME280;3673;52.480;13.348;2024-02-26T05:48:25;100078.50;;;9.90;56.26
7264;BME280;3673;52.480;13.348;2024-02-26T05:50:52;100079.53;;;9.70;56.92
7264;BME280;3673;52.480;13.348;2024-02-26T05:53:19;100076.78;;;9.86;56.37
7264;BME280;3673;52.480;13.348;2024-02-26T05:55:46;100080.22;;;9.94;56.38
7264;BME280;3673;52.480;13.348;2024-02-26T05:58:13;100085.69;;;9.63;57.07
7264;BME280;3673;52.480;13.348;2024-02-26T06:00:39;100079.34;;;9.92;56.61
7264;BME280;3673;52.480;13.348;2024-02-26T06:03:06;100089.72;;;9.99;56.16
7264;BME280;3673;52.480;13.348;2024-02-26T06:05:34;100094.31;;;9.71;57.19
7264;BME280;3673;52.480;13.348;2024-02-26T06:08:01;100098.53;;;9.89;56.89
7264;BME280;3673;52.480;13.348;2024-02-26T06:10:28;100095.06;;;9.86;56.88
7264;BME280;3673;52.480;13.348;2024-02-26T06:12:55;100103.72;;;9.92;56.61
7264;BME280;3673;52.480;13.348;2024-02-26T06:15:21;100108.00;;;10.02;56.19
7264;BME280;3673;52.480;13.348;2024-02-26T06:17:48;100092.28;;;10.05;55.80
7264;BME280;3673;52.480;13.348;2024-02-26T06:20:16;100103.78;;;9.86;56.70
7264;BME280;3673;52.480;13.348;2024-02-26T06:22:44;100100.28;;;9.84;56.76
7264;BME280;3673;52.480;13.348;2024-02-26T06:25:10;100096.88;;;9.80;57.34
7264;BME280;3673;52.480;13.348;2024-02-26T06:27:37;100103.91;;;9.69;57.55
7264;BME280;3673;52.480;13.348;2024-02-26T06:30:06;100094.31;;;9.71;57.36
7264;BME280;3673;52.480;13.348;2024-02-26T06:32:34;100106.28;;;10.00;56.60
7264;BME280;3673;52.480;13.348;2024-02-26T06:35:00;100098.28;;;10.18;56.09
7264;BME280;3673;52.480;13.348;2024-02-26T06:37:30;100109.72;;;10.03;56.38
7264;BME280;3673;52.480;13.348;2024-02-26T06:39:58;100116.56;;;10.24;56.33
7264;BME280;3673;52.480;13.348;2024-02-26T06:42:24;100116.66;;;10.10;56.45
7264;BME280;3673;52.480;13.348;2024-02-26T06:44:51;100119.97;;;10.30;56.10
7264;BME280;3673;52.480;13.348;2024-02-26T06:47:18;100130.50;;;10.21;56.39
7264;BME280;3673;52.480;13.348;2024-02-26T06:49:45;100127.69;;;10.43;55.59
7264;BME280;3673;52.480;13.348;2024-02-26T06:52:12;100133.84;;;10.37;55.76
7264;BME280;3673;52.480;13.348;2024-02-26T06:54:39;100132.22;;;10.21;56.01
7264;BME280;3673;52.480;13.348;2024-02-26T06:57:07;100134.75;;;10.31;55.90
7264;BME280;3673;52.480;13.348;2024-02-26T06:59:34;100144.34;;;10.34;55.43
7264;BME280;3673;52.480;13.348;2024-02-26T07:02:00;100150.38;;;10.38;55.92
7264;BME280;3673;52.480;13.348;2024-02-26T07:04:27;100147.81;;;10.31;55.67
7264;BME280;3673;52.480;13.348;2024-02-26T07:06:54;100142.56;;;10.34;55.50
7264;BME280;3673;52.480;13.348;2024-02-26T07:09:21;100153.94;;;10.32;55.61
7264;BME280;3673;52.480;13.348;2024-02-26T07:11:47;100160.16;;;10.17;55.98
7264;BME280;3673;52.480;13.348;2024-02-26T07:14:15;100161.84;;;10.21;55.99
7264;BME280;3673;52.480;13.348;2024-02-26T07:16:42;100158.22;;;10.41;55.38
7264;BME280;3673;52.480;13.348;2024-02-26T07:19:09;100154.16;;;10.02;56.72
7264;BME280;3673;52.480;13.348;2024-02-26T07:21:35;100165.25;;;10.31;56.06
7264;BME280;3673;52.480;13.348;2024-02-26T07:24:02;100156.56;;;10.29;56.32
7264;BME280;3673;52.480;13.348;2024-02-26T07:26:29;100154.00;;;10.21;56.01
7264;BME280;3673;52.480;13.348;2024-02-26T07:28:56;100160.09;;;10.25;55.82
7264;BME280;3673;52.480;13.348;2024-02-26T07:31:24;100161.69;;;10.38;55.82
7264;BME280;3673;52.480;13.348;2024-02-26T07:33:51;100155.41;;;10.59;54.98
7264;BME280;3673;52.480;13.348;2024-02-26T07:36:18;100157.22;;;10.54;55.43
7264;BME280;3673;52.480;13.348;2024-02-26T07:38:45;100151.97;;;10.52;55.19
7264;BME280;3673;52.480;13.348;2024-02-26T07:41:12;100155.38;;;10.62;55.24
7264;BME280;3673;52.480;13.348;2024-02-26T07:43:39;100161.47;;;10.62;55.22
7264;BME280;3673;52.480;13.348;2024-02-26T07:46:06;100138.81;;;10.63;55.30
7264;BME280;3673;52.480;13.348;2024-02-26T07:48:34;100155.19;;;10.78;54.58
7264;BME280;3673;52.480;13.348;2024-02-26T07:51:01;100146.31;;;10.92;54.11
7264;BME280;3673;52.480;13.348;2024-02-26T07:53:28;100160.38;;;10.81;54.37
7264;BME280;3673;52.480;13.348;2024-02-26T07:55:55;100163.94;;;10.74;54.82
7264;BME280;3673;52.480;13.348;2024-02-26T07:58:23;100148.84;;;11.01;54.41
7264;BME280;3673;52.480;13.348;2024-02-26T08:00:50;100146.09;;;11.10;54.12
7264;BME280;3673;52.480;13.348;2024-02-26T08:03:17;100152.72;;;11.35;53.93
7264;BME280;3673;52.480;13.348;2024-02-26T08:05:45;100154.25;;;11.51;56.27
7264;BME280;3673;52.480;13.348;2024-02-26T08:08:12;100158.88;;;11.31;53.97
7264;BME280;3673;52.480;13.348;2024-02-26T08:10:38;100161.63;;;11.22;54.03
7264;BME280;3673;52.480;13.348;2024-02-26T08:13:05;100157.91;;;11.38;53.33
7264;BME280;3673;52.480;13.348;2024-02-26T08:15:32;100161.38;;;11.43;53.17
7264;BME280;3673;52.480;13.348;2024-02-26T08:17:59;100163.25;;;11.33;53.29
7264;BME280;3673;52.480;13.348;2024-02-26T08:20:28;100163.88;;;11.49;52.65
7264;BME280;3673;52.480;13.348;2024-02-26T08:22:56;100158.34;;;11.72;52.49
7264;BME280;3673;52.480;13.348;2024-02-26T08:25:23;100159.47;;;11.51;52.69
7264;BME280;3673;52.480;13.348;2024-02-26T08:27:49;100160.34;;;11.52;52.82
7264;BME280;3673;52.480;13.348;2024-02-26T08:30:16;100158.34;;;11.72;52.70
7264;BME280;3673;52.480;13.348;2024-02-26T08:32:43;100163.47;;;11.79;52.40
7264;BME280;3673;52.480;13.348;2024-02-26T08:35:09;100154.75;;;11.80;52.51
7264;BME280;3673;52.480;13.348;2024-02-26T08:37:36;100171.25;;;11.85;52.34
7264;BME280;3673;52.480;13.348;2024-02-26T08:40:06;100162.13;;;12.11;51.83
7264;BME280;3673;52.480;13.348;2024-02-26T08:42:33;100156.19;;;12.00;51.78
7264;BME280;3673;52.480;13.348;2024-02-26T08:45:01;100149.91;;;12.08;52.05
7264;BME280;3673;52.480;13.348;2024-02-26T08:47:28;100151.47;;;12.18;51.46
7264;BME280;3673;52.480;13.348;2024-02-26T08:49:55;100146.88;;;12.32;51.09
7264;BME280;3673;52.480;13.348;2024-02-26T08:52:22;100152.28;;;12.23;50.97
7264;BME280;3673;52.480;13.348;2024-02-26T08:54:49;100148.84;;;12.20;51.49
7264;BME280;3673;52.480;13.348;2024-02-26T08:57:17;100148.44;;;12.43;50.74
7264;BME280;3673;52.480;13.348;2024-02-26T08:59:44;100154.44;;;12.49;50.63
7264;BME280;3673;52.480;13.348;2024-02-26T09:02:10;100152.75;;;12.47;50.71
7264;BME280;3673;52.480;13.348;2024-02-26T09:04:37;100146.19;;;12.69;50.50
7264;BME280;3673;52.480;13.348;2024-02-26T09:07:04;100142.16;;;12.96;49.70
7264;BME280;3673;52.480;13.348;2024-02-26T09:09:31;100144.25;;;12.80;49.82
7264;BME280;3673;52.480;13.348;2024-02-26T09:11:58;100149.22;;;12.94;49.88
7264;BME280;3673;52.480;13.348;2024-02-26T09:14:26;100144.13;;;12.84;49.97
7264;BME280;3673;52.480;13.348;2024-02-26T09:16:53;100156.28;;;12.90;49.52
7264;BME280;3673;52.480;13.348;2024-02-26T09:19:19;100149.09;;;12.98;49.58
7264;BME280;3673;52.480;13.348;2024-02-26T09:21:46;100154.19;;;13.07;49.11
7264;BME280;3673;52.480;13.348;2024-02-26T09:24:13;100149.00;;;13.04;49.36
7264;BME280;3673;52.480;13.348;2024-02-26T09:26:40;100158.06;;;13.31;49.52
7264;BME280;3673;52.480;13.348;2024-02-26T09:29:07;100160.38;;;13.46;49.24
7264;BME280;3673;52.480;13.348;2024-02-26T09:31:35;100166.13;;;13.63;48.56
7264;BME280;3673;52.480;13.348;2024-02-26T09:34:02;100164.72;;;13.87;47.90
7264;BME280;3673;52.480;13.348;2024-02-26T09:36:30;100168.56;;;13.34;48.87
7264;BME280;3673;52.480;13.348;2024-02-26T09:38:57;100164.41;;;13.62;51.02
7264;BME280;3673;52.480;13.348;2024-02-26T09:41:23;100169.50;;;14.07;48.18
7264;BME280;3673;52.480;13.348;2024-02-26T09:43:56;100164.53;;;14.30;47.39
7264;BME280;3673;52.480;13.348;2024-02-26T09:46:25;100160.06;;;14.32;46.96
7264;BME280;3673;52.480;13.348;2024-02-26T09:48:53;100160.97;;;14.34;46.83
7264;BME280;3673;52.480;13.348;2024-02-26T09:51:23;100159.47;;;14.58;46.47
7264;BME280;3673;52.480;13.348;2024-02-26T09:53:52;100164.25;;;14.42;46.26
7264;BME280;3673;52.480;13.348;2024-02-26T09:56:19;100160.59;;;14.48;46.00
7264;BME280;3673;52.480;13.348;2024-02-26T09:58:47;100161.69;;;14.71;45.64
7264;BME280;3673;52.480;13.348;2024-02-26T10:01:20;100161.44;;;14.48;45.98
7264;BME280;3673;52.480;13.348;2024-02-26T10:03:55;100173.63;;;14.52;45.76
7264;BME280;3673;52.480;13.348;2024-02-26T10:06:21;100171.25;;;14.75;45.33
7264;BME280;3673;52.480;13.348;2024-02-26T10:08:48;100166.72;;;14.80;45.13
7264;BME280;3673;52.480;13.348;2024-02-26T10:11:16;100169.13;;;14.88;45.09
7264;BME280;3673;52.480;13.348;2024-02-26T10:13:43;100171.16;;;14.78;45.11
7264;BME280;3673;52.480;13.348;2024-02-26T10:16:10;100170.25;;;14.47;45.56
7264;BME280;3673;52.480;13.348;2024-02-26T10:18:47;100174.63;;;14.80;45.07
7264;BME280;3673;52.480;13.348;2024-02-26T10:21:16;100165.72;;;15.15;44.38
7264;BME280;3673;52.480;13.348;2024-02-26T10:23:43;100165.97;;;15.08;44.70
7264;BME280;3673;52.480;13.348;2024-02-26T10:26:11;100169.50;;;15.36;44.06
7264;BME280;3673;52.480;13.348;2024-02-26T10:28:39;100170.31;;;15.09;43.81
7264;BME280;3673;52.480;13.348;2024-02-26T10:31:07;100171.75;;;15.20;43.86
7264;BME280;3673;52.480;13.348;2024-02-26T10:33:35;100174.38;;;15.51;43.79
7264;BME280;3673;52.480;13.348;2024-02-26T10:36:03;100172.31;;;15.61;43.17
7264;BME280;3673;52.480;13.348;2024-02-26T10:38:32;100169.72;;;15.59;43.30
7264;BME280;3673;52.480;13.348;2024-02-26T10:40:59;100174.81;;;15.34;43.10
7264;BME280;3673;52.480;13.348;2024-02-26T10:43:26;100170.75;;;15.24;43.27
7264;BME280;3673;52.480;13.348;2024-02-26T10:45:54;100169.28;;;14.83;43.45
7264;BME280;3673;52.480;13.348;2024-02-26T10:48:21;100168.13;;;15.24;43.10
7264;BME280;3673;52.480;13.348;2024-02-26T10:50:49;100169.72;;;14.99;43.76
7264;BME280;3673;52.480;13.348;2024-02-26T10:53:20;100166.78;;;15.10;43.49
7264;BME280;3673;52.480;13.348;2024-02-26T10:55:52;100175.75;;;15.33;42.73
7264;BME280;3673;52.480;13.348;2024-02-26T10:58:21;100171.59;;;15.83;41.71
7264;BME280;3673;52.480;13.348;2024-02-26T11:00:50;100168.00;;;16.14;41.37
7264;BME280;3673;52.480;13.348;2024-02-26T11:03:18;100164.13;;;16.24;41.01
7264;BME280;3673;52.480;13.348;2024-02-26T11:05:47;100169.25;;;16.28;40.84
7264;BME280;3673;52.480;13.348;2024-02-26T11:08:16;100174.28;;;16.10;40.69
7264;BME280;3673;52.480;13.348;2024-02-26T11:10:48;100168.03;;;16.12;40.63
7264;BME280;3673;52.480;13.348;2024-02-26T11:13:19;100170.88;;;15.78;41.18
7264;BME280;3673;52.480;13.348;2024-02-26T11:15:47;100166.66;;;16.01;40.92
7264;BME280;3673;52.480;13.348;2024-02-26T11:18:15;100157.19;;;16.97;39.65
7264;BME280;3673;52.480;13.348;2024-02-26T11:20:43;100163.50;;;17.39;38.95
7264;BME280;3673;52.480;13.348;2024-02-26T11:23:10;100168.13;;;17.11;38.62
7264;BME280;3673;52.480;13.348;2024-02-26T11:25:37;100158.38;;;16.88;38.48
7264;BME280;3673;52.480;13.348;2024-02-26T11:28:11;100175.44;;;17.28;38.26
7264;BME280;3673;52.480;13.348;2024-02-26T11:30:44;100165.28;;;17.16;38.66
7264;BME280;3673;52.480;13.348;2024-02-26T11:33:12;100162.84;;;17.11;38.47
7264;BME280;3673;52.480;13.348;2024-02-26T11:35:40;100168.84;;;17.15;38.74
7264;BME280;3673;52.480;13.348;2024-02-26T11:38:07;100164.53;;;17.12;38.76
7264;BME280;3673;52.480;13.348;2024-02-26T11:40:38;100159.03;;;17.18;38.03
7264;BME280;3673;52.480;13.348;2024-02-26T11:43:07;100179.66;;;17.57;37.94
7264;BME280;3673;52.480;13.348;2024-02-26T11:45:50;100159.94;;;16.94;38.47
7264;BME280;3673;52.480;13.348;2024-02-26T11:48:23;100149.53;;;17.36;37.46
7264;BME280;3673;52.480;13.348;2024-02-26T11:50:51;100152.66;;;17.47;37.32
7264;BME280;3673;52.480;13.348;2024-02-26T11:53:27;100157.06;;;17.70;37.03
7264;BME280;3673;52.480;13.348;2024-02-26T11:56:22;100155.59;;;18.06;36.26
7264;BME280;3673;52.480;13.348;2024-02-26T11:58:56;100158.34;;;17.81;36.49
7264;BME280;3673;52.480;13.348;2024-02-26T12:01:40;100163.50;;;17.39;36.90
7264;BME280;3673;52.480;13.348;2024-02-26T12:04:12;100163.69;;;17.12;37.18
7264;BME280;3673;52.480;13.348;2024-02-26T12:06:42;100159.31;;;16.87;37.57
7264;BME280;3673;52.480;13.348;2024-02-26T12:09:09;100162.19;;;17.51;36.21
7264;BME280;3673;52.480;13.348;2024-02-26T12:11:41;100162.75;;;16.89;36.96
7264;BME280;3673;52.480;13.348;2024-02-26T12:14:10;100166.25;;;17.83;35.97
7264;BME280;3673;52.480;13.348;2024-02-26T12:16:38;100153.06;;;18.03;35.61
7264;BME280;3673;52.480;13.348;2024-02-26T12:19:06;100145.22;;;18.22;35.54
7264;BME280;3673;52.480;13.348;2024-02-26T12:21:35;100158.75;;;18.58;35.29
7264;BME280;3673;52.480;13.348;2024-02-26T12:24:14;100152.31;;;18.63;35.29
7264;BME280;3673;52.480;13.348;2024-02-26T12:26:42;100152.00;;;18.29;35.65
7264;BME280;3673;52.480;13.348;2024-02-26T12:29:10;100159.81;;;18.32;35.17
7264;BME280;3673;52.480;13.348;2024-02-26T12:31:37;100164.63;;;18.22;35.65
7264;BME280;3673;52.480;13.348;2024-02-26T12:34:06;100157.38;;;19.08;34.20
7264;BME280;3673;52.480;13.348;2024-02-26T12:36:35;100167.34;;;19.22;34.04
7264;BME280;3673;52.480;13.348;2024-02-26T12:39:02;100163.94;;;19.38;33.68
7264;BME280;3673;52.480;13.348;2024-02-26T12:41:31;100160.97;;;19.65;33.43
7264;BME280;3673;52.480;13.348;2024-02-26T12:43:58;100172.50;;;19.82;33.37
7264;BME280;3673;52.480;13.348;2024-02-26T12:46:27;100165.13;;;19.70;34.15
7264;BME280;3673;52.480;13.348;2024-02-26T12:48:56;100172.69;;;19.01;35.24
7264;BME280;3673;52.480;13.348;2024-02-26T12:51:25;100170.97;;;18.40;36.15
7264;BME280;3673;52.480;13.348;2024-02-26T12:53:52;100156.13;;;18.58;36.00
7264;BME280;3673;52.480;13.348;2024-02-26T12:56:20;100166.06;;;18.91;35.08
7264;BME280;3673;52.480;13.348;2024-02-26T12:58:48;100169.06;;;17.78;36.47
7264;BME280;3673;52.480;13.348;2024-02-26T13:01:19;100160.97;;;18.25;35.71
7264;BME280;3673;52.480;13.348;2024-02-26T13:03:49;100160.41;;;18.80;35.08
7264;BME280;3673;52.480;13.348;2024-02-26T13:06:17;100151.78;;;18.75;34.40
7264;BME280;3673;52.480;13.348;2024-02-26T13:08:45;100164.28;;;18.51;34.27
7264;BME280;3673;52.480;13.348;2024-02-26T13:11:12;100163.09;;;18.59;34.20